createdAt,value
2022-10-11T00:01:16.491Z,12.90
2022-10-11T00:03:45.110Z,12.90
2022-10-11T00:06:13.410Z,12.80
2022-10-11T00:08:43.091Z,12.80
2022-10-11T00:11:11.922Z,12.80
2022-10-11T00:13:40.146Z,12.80
2022-10-11T00:16:10.493Z,12.80
2022-10-11T00:18:40.014Z,12.80
2022-10-11T00:21:10.162Z,12.80
2022-10-11T00:23:38.723Z,12.70
2022-10-11T00:26:10.229Z,12.70
2022-10-11T00:28:58.743Z,12.70
2022-10-11T00:31:30.911Z,12.70
2022-10-11T00:34:58.576Z,12.60
2022-10-11T00:37:27.026Z,12.60
2022-10-11T00:39:55.354Z,12.60
2022-10-11T00:42:25.741Z,12.60
2022-10-11T00:45:14.305Z,12.50
2022-10-11T00:47:42.838Z,12.50
2022-10-11T00:50:12.496Z,12.40
2022-10-11T00:52:44.362Z,12.40
2022-10-11T00:55:15.869Z,12.40
2022-10-11T00:57:49.878Z,12.30
2022-10-11T01:00:18.353Z,12.30
2022-10-11T01:02:47.330Z,12.20
2022-10-11T01:05:29.575Z,12.30
2022-10-11T01:07:59.933Z,12.20
2022-10-11T01:10:29.196Z,12.20
2022-10-11T01:13:20.377Z,12.10
2022-10-11T01:15:56.556Z,12.10
2022-10-11T01:18:33.201Z,12.10
2022-10-11T01:21:07.537Z,12.00
2022-10-11T01:24:08.360Z,12.00
2022-10-11T01:27:25.441Z,12.00
2022-10-11T01:30:04.762Z,11.90
2022-10-11T01:32:40.928Z,11.90
2022-10-11T01:35:17.464Z,11.80
2022-10-11T01:37:54.494Z,11.80
2022-10-11T01:40:27.955Z,11.70
2022-10-11T01:42:58.462Z,11.60
2022-10-11T01:45:27.558Z,11.60
2022-10-11T01:48:05.791Z,11.50
2022-10-11T01:50:44.336Z,11.50
2022-10-11T01:53:47.449Z,11.40
2022-10-11T01:56:29.336Z,11.40
2022-10-11T01:59:16.934Z,11.30
2022-10-11T02:01:54.758Z,11.30
2022-10-11T02:04:32.063Z,11.30
2022-10-11T02:07:10.881Z,11.30
2022-10-11T02:09:47.231Z,11.30
2022-10-11T02:12:23.955Z,11.30
2022-10-11T02:14:55.627Z,11.20
2022-10-11T02:17:30.109Z,11.20
2022-10-11T02:20:03.976Z,11.10
2022-10-11T02:22:37.226Z,11.20
2022-10-11T02:25:10.138Z,11.10
2022-10-11T02:27:41.614Z,11.10
2022-10-11T02:30:12.377Z,11.10
2022-10-11T02:32:45.188Z,11.10
2022-10-11T02:35:15.227Z,11.10
2022-10-11T02:37:52.628Z,11.10
2022-10-11T02:40:24.953Z,11.10
2022-10-11T02:42:58.774Z,11.10
2022-10-11T02:45:31.453Z,11.10
2022-10-11T02:48:00.344Z,11.10
2022-10-11T02:50:30.277Z,11.10
2022-10-11T02:52:58.597Z,11.10
2022-10-11T02:55:27.074Z,11.00
2022-10-11T02:57:55.441Z,11.00
2022-10-11T03:00:23.858Z,11.00
2022-10-11T03:02:52.394Z,10.90
2022-10-11T03:05:21.053Z,10.90
2022-10-11T03:07:53.582Z,10.90
2022-10-11T03:10:22.263Z,10.90
2022-10-11T03:12:51.114Z,10.90
2022-10-11T03:15:19.987Z,10.80
2022-10-11T03:17:48.301Z,10.80
2022-10-11T03:20:16.813Z,10.80
2022-10-11T03:22:45.143Z,10.80
2022-10-11T03:25:33.603Z,10.80
2022-10-11T03:28:02.122Z,10.80
2022-10-11T03:30:30.574Z,10.80
2022-10-11T03:32:58.979Z,10.70
2022-10-11T03:35:27.456Z,10.70
2022-10-11T03:37:56.348Z,10.60
2022-10-11T03:40:24.855Z,10.60
2022-10-11T03:42:56.502Z,10.60
2022-10-11T03:45:24.865Z,10.60
2022-10-11T03:47:53.266Z,10.60
2022-10-11T03:50:24.715Z,10.60
2022-10-11T03:52:53.463Z,10.60
2022-10-11T03:55:21.870Z,10.50
2022-10-11T03:57:50.604Z,10.50
2022-10-11T04:00:20.374Z,10.50
2022-10-11T04:02:48.768Z,10.50
2022-10-11T04:05:17.462Z,10.50
2022-10-11T04:07:45.825Z,10.50
2022-10-11T04:10:14.234Z,10.50
2022-10-11T04:15:47.911Z,10.50
2022-10-11T04:18:16.499Z,10.50
2022-10-11T04:20:45.118Z,10.50
2022-10-11T04:23:13.503Z,10.50
2022-10-11T04:25:41.835Z,10.50
2022-10-11T04:28:10.348Z,10.50
2022-10-11T04:30:38.797Z,10.50
2022-10-11T04:33:08.982Z,10.40
2022-10-11T04:35:37.531Z,10.40
2022-10-11T04:38:06.017Z,10.40
2022-10-11T04:40:34.823Z,10.30
2022-10-11T04:43:03.305Z,10.30
2022-10-11T04:45:32.118Z,10.30
2022-10-11T04:48:22.038Z,10.30
2022-10-11T04:50:50.787Z,10.30
2022-10-11T04:53:19.233Z,10.20
2022-10-11T04:55:57.704Z,10.20
2022-10-11T04:58:26.266Z,10.20
2022-10-11T05:00:54.948Z,10.20
2022-10-11T05:03:25.214Z,10.20
2022-10-11T05:05:56.699Z,10.10
2022-10-11T05:08:25.567Z,10.10
2022-10-11T05:10:58.162Z,10.10
2022-10-11T05:13:26.985Z,10.10
2022-10-11T05:15:55.452Z,10.10
2022-10-11T05:18:25.761Z,10.00
2022-10-11T05:21:00.853Z,10.00
2022-10-11T05:23:29.599Z,10.00
2022-10-11T05:25:58.145Z,10.00
2022-10-11T05:28:26.725Z,9.90
2022-10-11T05:30:55.586Z,9.90
2022-10-11T05:33:25.945Z,9.80
2022-10-11T05:35:56.895Z,9.80
2022-10-11T05:38:26.892Z,9.70
2022-10-11T05:40:55.432Z,9.70
2022-10-11T05:43:44.486Z,9.70
2022-10-11T05:46:13.627Z,9.70
2022-10-11T05:48:43.526Z,9.80
2022-10-11T05:51:14.825Z,9.80
2022-10-11T05:53:50.439Z,9.80
2022-10-11T05:56:23.673Z,9.80
2022-10-11T05:58:59.904Z,9.80
2022-10-11T06:01:33.352Z,9.80
2022-10-11T06:04:04.794Z,9.80
2022-10-11T06:06:33.353Z,9.80
2022-10-11T06:09:01.693Z,9.70
2022-10-11T06:11:30.309Z,9.70
2022-10-11T06:13:59.176Z,9.70
2022-10-11T06:16:29.598Z,9.80
2022-10-11T06:18:58.796Z,9.80
2022-10-11T06:21:28.540Z,9.80
2022-10-11T06:24:01.796Z,9.80
2022-10-11T06:26:36.859Z,9.80
2022-10-11T06:29:05.434Z,9.90
2022-10-11T06:31:34.095Z,9.80
2022-10-11T06:34:02.580Z,9.90
2022-10-11T06:36:37.983Z,9.90
2022-10-11T06:39:08.995Z,9.90
2022-10-11T06:41:46.354Z,9.90
2022-10-11T06:44:26.328Z,9.90
2022-10-11T06:46:56.340Z,10.00
2022-10-11T06:49:24.853Z,10.00
2022-10-11T06:51:55.385Z,10.00
2022-10-11T06:54:24.410Z,10.00
2022-10-11T06:56:54.291Z,10.10
2022-10-11T06:59:22.766Z,10.10
2022-10-11T07:01:51.103Z,10.20
2022-10-11T07:04:19.431Z,10.20
2022-10-11T07:06:48.042Z,10.20
2022-10-11T07:09:17.862Z,10.10
2022-10-11T07:11:48.458Z,10.10
2022-10-11T07:14:16.947Z,10.20
2022-10-11T07:16:45.360Z,10.30
2022-10-11T07:19:13.873Z,10.30
2022-10-11T07:21:42.315Z,10.30
2022-10-11T07:24:10.831Z,10.40
2022-10-11T07:26:40.863Z,10.50
2022-10-11T07:29:11.243Z,10.50
2022-10-11T07:31:42.063Z,10.50
2022-10-11T07:34:10.847Z,10.50
2022-10-11T07:36:39.238Z,10.60
2022-10-11T07:39:09.350Z,11.00
2022-10-11T07:41:43.157Z,11.10
2022-10-11T07:44:19.705Z,11.30
2022-10-11T07:46:48.192Z,11.80
2022-10-11T07:49:16.628Z,12.30
2022-10-11T07:51:47.798Z,13.00
2022-10-11T07:54:16.591Z,13.50
2022-10-11T07:56:45.579Z,14.10
2022-10-11T07:59:15.721Z,14.60
2022-10-11T08:02:00.090Z,15.10
2022-10-11T08:04:32.388Z,15.60
2022-10-11T08:07:01.773Z,16.10
2022-10-11T08:09:33.690Z,16.50
2022-10-11T08:12:02.387Z,16.90
2022-10-11T08:14:32.336Z,17.20
2022-10-11T08:17:15.915Z,17.60
2022-10-11T08:19:45.689Z,18.10
2022-10-11T08:22:14.490Z,18.40
2022-10-11T08:24:43.292Z,18.90
2022-10-11T08:27:12.141Z,19.30
2022-10-11T08:29:42.307Z,19.70
2022-10-11T08:32:12.235Z,19.80
2022-10-11T08:34:41.265Z,20.10
2022-10-11T08:37:09.985Z,20.40
2022-10-11T08:39:38.893Z,20.60
2022-10-11T08:42:14.088Z,20.80
2022-10-11T08:47:41.063Z,21.40
2022-10-11T08:50:19.757Z,21.50
2022-10-11T08:52:52.634Z,21.80
2022-10-11T08:55:29.458Z,22.20
2022-10-11T08:57:59.846Z,22.30
2022-10-11T09:00:34.154Z,22.70
2022-10-11T09:03:24.468Z,22.80
2022-10-11T09:06:02.499Z,23.00
2022-10-11T09:08:39.101Z,23.20
2022-10-11T09:11:15.867Z,23.40
2022-10-11T09:14:01.175Z,23.40
2022-10-11T09:16:43.731Z,23.60
2022-10-11T09:19:38.835Z,23.90
2022-10-11T09:22:16.014Z,24.20
2022-10-11T09:25:00.995Z,24.40
2022-10-11T09:28:01.213Z,24.50
2022-10-11T09:30:27.143Z,24.60
2022-10-11T09:33:11.194Z,24.50
2022-10-11T09:35:43.562Z,24.70
2022-10-11T09:38:22.923Z,25.00
2022-10-11T09:41:01.633Z,25.10
2022-10-11T09:43:30.279Z,25.30
2022-10-11T09:45:59.134Z,25.10
2022-10-11T09:48:36.575Z,25.00
2022-10-11T09:51:13.764Z,24.90
2022-10-11T09:53:54.977Z,25.10
2022-10-11T09:56:24.836Z,25.30
2022-10-11T09:59:22.925Z,25.60
2022-10-11T10:02:06.992Z,25.80
2022-10-11T10:04:37.016Z,25.90
2022-10-11T10:07:13.671Z,25.70
2022-10-11T10:09:42.228Z,25.70
2022-10-11T10:12:14.296Z,25.90
2022-10-11T10:14:43.060Z,25.90
2022-10-11T10:17:18.287Z,26.10
2022-10-11T10:19:52.537Z,26.20
2022-10-11T10:22:23.182Z,26.00
2022-10-11T10:24:53.063Z,25.90
2022-10-11T10:27:23.503Z,25.60
2022-10-11T10:30:05.885Z,25.70
2022-10-11T10:32:43.749Z,26.00
2022-10-11T10:35:24.404Z,26.00
2022-10-11T10:37:58.671Z,26.20
2022-10-11T10:40:34.083Z,26.20
2022-10-11T10:43:02.531Z,26.10
2022-10-11T10:45:39.516Z,25.80
2022-10-11T10:48:22.779Z,26.00
2022-10-11T10:50:58.603Z,26.00
2022-10-11T10:53:36.342Z,25.70
2022-10-11T10:56:55.510Z,25.30
2022-10-11T11:00:04.995Z,25.30
2022-10-11T11:02:41.669Z,25.40
2022-10-11T11:05:21.530Z,25.40
2022-10-11T11:07:55.995Z,25.50
2022-10-11T11:10:29.690Z,25.80
2022-10-11T11:13:13.649Z,25.80
2022-10-11T11:15:47.300Z,26.00
2022-10-11T11:18:30.254Z,26.30
2022-10-11T11:21:27.979Z,26.30
2022-10-11T11:24:05.852Z,26.00
2022-10-11T11:26:44.475Z,25.80
2022-10-11T11:29:38.336Z,25.80
2022-10-11T11:32:21.551Z,25.80
2022-10-11T11:34:58.394Z,26.00
2022-10-11T11:37:32.077Z,25.90
2022-10-11T11:40:08.850Z,25.80
2022-10-11T11:42:42.915Z,25.50
2022-10-11T11:45:19.579Z,25.20
2022-10-11T11:47:54.068Z,25.20
2022-10-11T11:50:27.321Z,25.10
2022-10-11T11:53:00.843Z,25.10
2022-10-11T11:55:41.278Z,25.00
2022-10-11T11:58:31.379Z,24.90
2022-10-11T12:01:08.694Z,24.80
2022-10-11T12:03:42.253Z,24.70
2022-10-11T12:06:27.298Z,24.70
2022-10-11T12:09:06.441Z,24.70
2022-10-11T12:11:47.402Z,24.70
2022-10-11T12:17:19.427Z,24.50
2022-10-11T12:20:16.234Z,24.30
2022-10-11T12:23:00.306Z,24.20
2022-10-11T12:25:47.192Z,24.30
2022-10-11T12:28:53.315Z,24.10
2022-10-11T12:31:27.420Z,23.60
2022-10-11T12:34:36.284Z,23.10
2022-10-11T12:37:46.802Z,23.00
2022-10-11T12:40:41.888Z,22.70
2022-10-11T12:43:23.716Z,22.60
2022-10-11T12:45:52.461Z,22.50
2022-10-11T12:48:45.481Z,22.20
2022-10-11T12:51:31.450Z,22.30
2022-10-11T12:54:36.859Z,22.20
2022-10-11T12:57:45.929Z,21.90
2022-10-11T13:00:20.830Z,21.90
2022-10-11T13:02:50.431Z,21.90
2022-10-11T13:05:25.266Z,21.80
2022-10-11T13:07:55.097Z,21.50
2022-10-11T13:10:28.829Z,21.30
2022-10-11T13:12:59.689Z,21.30
2022-10-11T13:15:29.594Z,21.30
2022-10-11T13:18:01.004Z,21.30
2022-10-11T13:20:37.524Z,21.30
2022-10-11T13:23:34.974Z,21.20
2022-10-11T13:26:04.037Z,21.20
2022-10-11T13:28:36.481Z,21.20
2022-10-11T13:31:06.921Z,21.20
2022-10-11T13:33:39.218Z,20.90
2022-10-11T13:36:17.633Z,20.70
2022-10-11T13:38:53.534Z,20.60
2022-10-11T13:41:22.738Z,20.50
2022-10-11T13:44:06.068Z,20.50
2022-10-11T13:46:41.698Z,20.50
2022-10-11T13:49:29.244Z,20.50
2022-10-11T13:52:18.502Z,20.40
2022-10-11T13:55:11.470Z,20.30
2022-10-11T13:58:15.025Z,20.20
2022-10-11T14:00:54.883Z,20.20
2022-10-11T14:03:24.673Z,20.10
2022-10-11T14:05:57.632Z,20.10
2022-10-11T14:08:33.069Z,19.90
2022-10-11T14:11:06.305Z,19.90
2022-10-11T14:13:37.638Z,19.90
2022-10-11T14:16:09.505Z,19.80
2022-10-11T14:18:47.641Z,19.80
2022-10-11T14:21:32.863Z,19.80
2022-10-11T14:24:05.976Z,19.80
2022-10-11T14:26:37.160Z,19.80
2022-10-11T14:29:08.877Z,19.80
2022-10-11T14:31:41.788Z,19.70
2022-10-11T14:34:18.029Z,19.70
2022-10-11T14:36:46.787Z,19.70
2022-10-11T14:39:19.809Z,19.60
2022-10-11T14:41:48.597Z,19.50
2022-10-11T14:44:17.272Z,19.50
2022-10-11T14:46:47.099Z,19.50
2022-10-11T14:49:16.887Z,19.50
2022-10-11T14:51:46.399Z,19.40
2022-10-11T14:54:18.878Z,19.40
2022-10-11T14:56:47.712Z,19.30
2022-10-11T14:59:17.943Z,19.30
2022-10-11T15:01:51.586Z,19.30
2022-10-11T15:04:20.388Z,19.30
2022-10-11T15:06:49.725Z,19.30
2022-10-11T15:12:04.416Z,19.20
2022-10-11T15:14:32.746Z,19.20
2022-10-11T15:17:00.990Z,19.20
2022-10-11T15:19:29.469Z,19.10
2022-10-11T15:21:57.851Z,19.10
2022-10-11T15:24:27.931Z,19.10
2022-10-11T15:26:56.234Z,19.10
2022-10-11T15:29:24.540Z,19.10
2022-10-11T15:34:35.544Z,19.00
2022-10-11T15:37:04.082Z,19.00
2022-10-11T15:39:33.903Z,18.90
2022-10-11T15:42:02.211Z,18.90
2022-10-11T15:44:30.393Z,18.90
2022-10-11T15:46:58.667Z,18.80
2022-10-11T15:49:26.970Z,18.80
2022-10-11T15:51:55.306Z,18.80
2022-10-11T15:54:23.646Z,18.80
2022-10-11T15:56:53.310Z,18.80
2022-10-11T15:59:21.589Z,18.70
2022-10-11T16:01:49.931Z,18.70
2022-10-11T16:04:18.348Z,18.60
2022-10-11T16:06:46.993Z,18.60
2022-10-11T16:09:15.273Z,18.60
2022-10-11T16:11:43.603Z,18.50
2022-10-11T16:14:13.251Z,18.50
2022-10-11T16:16:41.535Z,18.50
2022-10-11T16:19:11.034Z,18.40
2022-10-11T16:21:39.317Z,18.40
2022-10-11T16:24:09.504Z,18.40
2022-10-11T16:26:37.753Z,18.40
2022-10-11T16:29:06.098Z,18.40
2022-10-11T16:31:35.798Z,18.30
2022-10-11T16:34:04.869Z,18.30
2022-10-11T16:36:35.991Z,18.30
2022-10-11T16:39:08.779Z,18.20
2022-10-11T16:41:37.359Z,18.20
2022-10-11T16:44:06.160Z,18.20
2022-10-11T16:46:36.075Z,18.10
2022-10-11T16:49:05.518Z,18.10
2022-10-11T16:51:48.553Z,18.10
2022-10-11T16:54:20.706Z,18.00
2022-10-11T16:56:52.828Z,17.90
2022-10-11T16:59:26.876Z,17.90
2022-10-11T17:01:59.791Z,17.80
2022-10-11T17:04:33.881Z,17.80
2022-10-11T17:07:13.590Z,17.70
2022-10-11T17:09:44.156Z,17.60
2022-10-11T17:12:14.186Z,17.60
2022-10-11T17:14:43.419Z,17.50
2022-10-11T17:17:13.946Z,17.40
2022-10-11T17:19:45.336Z,17.30
2022-10-11T17:22:16.436Z,17.30
2022-10-11T17:24:48.362Z,17.20
2022-10-11T17:27:17.609Z,17.00
2022-10-11T17:29:46.466Z,17.00
2022-10-11T17:32:19.889Z,16.90
2022-10-11T17:34:48.811Z,16.80
2022-10-11T17:37:17.240Z,16.70
2022-10-11T17:39:45.627Z,16.70
2022-10-11T17:42:13.990Z,16.60
2022-10-11T17:44:42.530Z,16.50
2022-10-11T17:47:11.260Z,16.40
2022-10-11T17:49:41.316Z,16.30
2022-10-11T17:52:09.886Z,16.20
2022-10-11T17:54:42.977Z,16.20
2022-10-11T17:57:11.408Z,16.10
2022-10-11T17:59:39.840Z,16.00
2022-10-11T18:02:08.403Z,15.90
2022-10-11T18:04:37.663Z,15.90
2022-10-11T18:07:08.881Z,15.80
2022-10-11T18:09:37.338Z,15.70
2022-10-11T18:12:06.140Z,15.70
2022-10-11T18:14:34.649Z,15.60
2022-10-11T18:17:03.661Z,15.50
2022-10-11T18:19:32.500Z,15.50
2022-10-11T18:24:44.893Z,15.40
2022-10-11T18:27:13.649Z,15.30
2022-10-11T18:29:44.595Z,15.20
2022-10-11T18:32:13.909Z,15.20
2022-10-11T18:34:42.596Z,15.10
2022-10-11T18:37:11.149Z,15.10
2022-10-11T18:39:40.255Z,15.00
2022-10-11T18:42:10.403Z,15.00
2022-10-11T18:44:39.361Z,14.90
2022-10-11T18:47:07.888Z,14.90
2022-10-11T18:49:36.443Z,14.80
2022-10-11T18:52:05.466Z,14.80
2022-10-11T18:54:35.085Z,14.70
2022-10-11T18:57:08.274Z,14.70
2022-10-11T18:59:55.514Z,14.60
2022-10-11T19:02:24.901Z,14.60
2022-10-11T19:04:54.793Z,14.50
2022-10-11T19:07:26.044Z,14.40
2022-10-11T19:09:59.717Z,14.40
2022-10-11T19:12:28.942Z,14.40
2022-10-11T19:14:59.399Z,14.30
2022-10-11T19:17:30.025Z,14.30
2022-10-11T19:19:59.593Z,14.20
2022-10-11T19:22:33.580Z,14.20
2022-10-11T19:25:03.564Z,14.10
2022-10-11T19:27:33.525Z,14.10
2022-10-11T19:30:06.914Z,14.00
2022-10-11T19:32:35.894Z,14.00
2022-10-11T19:35:04.363Z,13.90
2022-10-11T19:37:33.284Z,13.90
2022-10-11T19:40:03.960Z,13.90
2022-10-11T19:42:32.786Z,13.80
2022-10-11T19:45:01.474Z,13.80
2022-10-11T19:47:31.654Z,13.70
2022-10-11T19:50:00.187Z,13.70
2022-10-11T19:52:28.650Z,13.60
2022-10-11T19:54:57.887Z,13.60
2022-10-11T19:57:26.402Z,13.60
2022-10-11T19:59:54.723Z,13.50
2022-10-11T20:02:23.567Z,13.50
2022-10-11T20:04:54.040Z,13.50
2022-10-11T20:07:23.242Z,13.40
2022-10-11T20:09:52.571Z,13.40
2022-10-11T20:12:21.141Z,13.30
2022-10-11T20:14:49.750Z,13.30
2022-10-11T20:17:18.146Z,13.30
2022-10-11T20:19:46.536Z,13.20
2022-10-11T20:22:16.706Z,13.20
2022-10-11T20:24:45.189Z,13.20
2022-10-11T20:27:13.657Z,13.20
2022-10-11T20:29:42.146Z,13.10
2022-10-11T20:32:11.379Z,13.10
2022-10-11T20:34:39.993Z,13.00
2022-10-11T20:37:25.685Z,13.00
2022-10-11T20:39:54.065Z,13.00
2022-10-11T20:42:25.292Z,13.00
2022-10-11T20:44:56.204Z,13.00
2022-10-11T20:47:24.591Z,13.00
2022-10-11T20:49:53.312Z,13.00
2022-10-11T20:52:22.195Z,12.80
2022-10-11T20:54:52.084Z,12.80
2022-10-11T20:57:20.705Z,12.70
2022-10-11T20:59:49.394Z,12.60
2022-10-11T21:02:19.100Z,12.60
2022-10-11T21:04:47.612Z,12.50
2022-10-11T21:07:15.955Z,12.50
2022-10-11T21:09:44.407Z,12.50
2022-10-11T21:12:14.211Z,12.40
2022-10-11T21:14:57.497Z,12.30
2022-10-11T21:17:26.936Z,12.30
2022-10-11T21:19:55.369Z,12.20
2022-10-11T21:22:23.891Z,12.20
2022-10-11T21:24:52.277Z,12.20
2022-10-11T21:27:22.564Z,12.10
2022-10-11T21:29:51.119Z,12.10
2022-10-11T21:32:34.918Z,12.10
2022-10-11T21:35:05.452Z,12.00
2022-10-11T21:37:33.979Z,12.00
2022-10-11T21:40:02.357Z,12.00
2022-10-11T21:42:32.000Z,11.90
2022-10-11T21:45:00.350Z,11.90
2022-10-11T21:47:28.675Z,11.90
2022-10-11T21:49:57.467Z,11.80
2022-10-11T21:52:26.057Z,11.80
2022-10-11T21:54:55.080Z,11.70
2022-10-11T22:03:42.358Z,11.70
2022-10-11T22:57:41.682Z,10.90
2022-10-11T23:00:13.231Z,10.90
2022-10-11T23:02:46.122Z,10.90
2022-10-11T23:05:15.118Z,10.80
2022-10-11T23:20:25.454Z,10.70
2022-10-11T23:25:51.029Z,10.60
2022-10-11T23:41:00.367Z,10.50
2022-10-11T23:43:29.119Z,10.50
